CES486 ZSSS-RJBB
Flight info
| Callsign | CES486 |
|---|---|
| Flight time | 1h 45m |
| Altitude | 35000 |
| Route | LAM61D LAMEN A593 SADLI Y590 BEDAR Y591 FUE Y35 IGLEV |
| Aircraft | A321/M-SDE3FGHIRWY/LB1 |
Departure
| Time | 2026-05-05 13:18 |
|---|---|
| Airport | Shanghai Hongqiao International Airport (ZSSS) |
Arrival
| Time | 2026-05-05 15:03 |
|---|---|
| Airport | Kansai International Airport (RJBB) |
| Time | Latitude | Longitude | Altitude | Speed | Heading |
|---|---|---|---|---|---|
| 2026-05-05 13:03 | 31.19821 | 121.34120 | 19 ft | 0 kts | 177° |
| 2026-05-05 13:05 | 31.19844 | 121.34119 | 21 ft | 4 kts | 182° |
| 2026-05-05 13:06 | 31.19871 | 121.34122 | 21 ft | 4 kts | 191° |
| 2026-05-05 13:06 | 31.19896 | 121.34131 | 21 ft | 4 kts | 215° |
| 2026-05-05 13:06 | 31.19909 | 121.34149 | 21 ft | 1 kts | 268° |
| 2026-05-05 13:06 | 31.19909 | 121.34150 | 21 ft | 0 kts | 268° |
| 2026-05-05 13:08 | 31.19909 | 121.34138 | 20 ft | 11 kts | 269° |
| 2026-05-05 13:08 | 31.19904 | 121.34022 | 19 ft | 12 kts | 267° |
| 2026-05-05 13:08 | 31.19951 | 121.33961 | 19 ft | 12 kts | 352° |
| 2026-05-05 13:09 | 31.20035 | 121.33954 | 19 ft | 12 kts | 359° |
| 2026-05-05 13:09 | 31.20119 | 121.33945 | 19 ft | 11 kts | 329° |
| 2026-05-05 13:09 | 31.20165 | 121.33874 | 20 ft | 11 kts | 327° |
| 2026-05-05 13:09 | 31.20242 | 121.33858 | 19 ft | 12 kts | 356° |
| 2026-05-05 13:10 | 31.20356 | 121.33852 | 19 ft | 22 kts | 358° |
| 2026-05-05 13:10 | 31.20549 | 121.33842 | 19 ft | 33 kts | 356° |
| 2026-05-05 13:10 | 31.20813 | 121.33829 | 19 ft | 43 kts | 358° |
| 2026-05-05 13:10 | 31.21040 | 121.33816 | 19 ft | 27 kts | 357° |
| 2026-05-05 13:11 | 31.21159 | 121.33802 | 21 ft | 15 kts | 341° |
| 2026-05-05 13:11 | 31.21219 | 121.33707 | 19 ft | 14 kts | 282° |
| 2026-05-05 13:11 | 31.21220 | 121.33692 | 19 ft | 0 kts | 269° |
| 2026-05-05 13:16 | 31.21219 | 121.33672 | 19 ft | 11 kts | 269° |
| 2026-05-05 13:16 | 31.21178 | 121.33555 | 20 ft | 11 kts | 197° |
| 2026-05-05 13:16 | 31.21165 | 121.33556 | 20 ft | 0 kts | 174° |
| 2026-05-05 13:17 | 31.21122 | 121.33559 | 20 ft | 29 kts | 177° |
| 2026-05-05 13:17 | 31.20679 | 121.33581 | 19 ft | 97 kts | 177° |
| 2026-05-05 13:17 | 31.19809 | 121.33630 | 19 ft | 151 kts | 177° |
| 2026-05-05 13:18 | 31.18671 | 121.33679 | 337 ft | 170 kts | 178° |
| 2026-05-05 13:18 | 31.17503 | 121.33729 | 1034 ft | 168 kts | 176° |
| 2026-05-05 13:18 | 31.16297 | 121.33770 | 1552 ft | 180 kts | 178° |
| 2026-05-05 13:18 | 31.14980 | 121.33810 | 1762 ft | 197 kts | 179° |
| 2026-05-05 13:19 | 31.13584 | 121.33848 | 2129 ft | 204 kts | 178° |
| 2026-05-05 13:19 | 31.12151 | 121.33888 | 2483 ft | 211 kts | 178° |
| 2026-05-05 13:19 | 31.10607 | 121.33931 | 2588 ft | 235 kts | 178° |
| 2026-05-05 13:19 | 31.08918 | 121.33979 | 3012 ft | 247 kts | 178° |
| 2026-05-05 13:20 | 31.07173 | 121.34027 | 3572 ft | 255 kts | 178° |
| 2026-05-05 13:20 | 31.05415 | 121.34073 | 4250 ft | 257 kts | 179° |
| 2026-05-05 13:20 | 31.03618 | 121.34120 | 4934 ft | 260 kts | 179° |
| 2026-05-05 13:20 | 31.01810 | 121.34354 | 5576 ft | 264 kts | 172° |
| 2026-05-05 13:21 | 30.99975 | 121.34686 | 6200 ft | 269 kts | 172° |
| 2026-05-05 13:21 | 30.98118 | 121.35038 | 6814 ft | 272 kts | 171° |
| 2026-05-05 13:21 | 30.96231 | 121.35400 | 7395 ft | 277 kts | 171° |
| 2026-05-05 13:21 | 30.94330 | 121.35839 | 8019 ft | 281 kts | 161° |
| 2026-05-05 13:22 | 30.92659 | 121.37019 | 8604 ft | 286 kts | 135° |
| 2026-05-05 13:22 | 30.91590 | 121.38939 | 9186 ft | 291 kts | 109° |
| 2026-05-05 13:22 | 30.91055 | 121.41226 | 9799 ft | 294 kts | 104° |
| 2026-05-05 13:22 | 30.90555 | 121.43563 | 10243 ft | 305 kts | 104° |
| 2026-05-05 13:23 | 30.90025 | 121.46034 | 10367 ft | 325 kts | 104° |
| 2026-05-05 13:23 | 30.89469 | 121.48594 | 10488 ft | 343 kts | 104° |
| 2026-05-05 13:23 | 30.88855 | 121.51400 | 10797 ft | 354 kts | 105° |
| 2026-05-05 13:23 | 30.88239 | 121.54200 | 11275 ft | 359 kts | 104° |
| 2026-05-05 13:24 | 30.87617 | 121.57033 | 11781 ft | 363 kts | 104° |
| 2026-05-05 13:24 | 30.86987 | 121.59895 | 12314 ft | 366 kts | 105° |
| 2026-05-05 13:24 | 30.86359 | 121.62748 | 12753 ft | 372 kts | 105° |
| 2026-05-05 13:24 | 30.85712 | 121.65676 | 13232 ft | 375 kts | 104° |
| 2026-05-05 13:25 | 30.85056 | 121.68628 | 13752 ft | 378 kts | 105° |
| 2026-05-05 13:25 | 30.84393 | 121.71605 | 14168 ft | 383 kts | 105° |
| 2026-05-05 13:25 | 30.83720 | 121.74612 | 14627 ft | 385 kts | 104° |
| 2026-05-05 13:25 | 30.83045 | 121.77633 | 15105 ft | 387 kts | 104° |
| 2026-05-05 13:26 | 30.82370 | 121.80679 | 15521 ft | 391 kts | 104° |
| 2026-05-05 13:26 | 30.81691 | 121.83754 | 15955 ft | 394 kts | 104° |
| 2026-05-05 13:26 | 30.81019 | 121.86801 | 16426 ft | 396 kts | 104° |
| 2026-05-05 13:26 | 30.80490 | 121.89954 | 16813 ft | 400 kts | 95° |
| 2026-05-05 13:27 | 30.80468 | 121.93186 | 17271 ft | 401 kts | 84° |
| 2026-05-05 13:27 | 30.80970 | 121.96372 | 17694 ft | 402 kts | 72° |
| 2026-05-05 13:27 | 30.81829 | 121.99475 | 18105 ft | 404 kts | 70° |
| 2026-05-05 13:27 | 30.82703 | 122.02591 | 18527 ft | 406 kts | 71° |
| 2026-05-05 13:28 | 30.83578 | 122.05725 | 18880 ft | 409 kts | 70° |
| 2026-05-05 13:28 | 30.84454 | 122.08879 | 19259 ft | 410 kts | 71° |
| 2026-05-05 13:28 | 30.85334 | 122.12046 | 19639 ft | 412 kts | 71° |
| 2026-05-05 13:28 | 30.86230 | 122.15216 | 19990 ft | 414 kts | 68° |
| 2026-05-05 13:29 | 30.87447 | 122.18248 | 20340 ft | 414 kts | 58° |
| 2026-05-05 13:29 | 30.88920 | 122.21080 | 20670 ft | 416 kts | 57° |
| 2026-05-05 13:29 | 30.90430 | 122.23972 | 20994 ft | 419 kts | 57° |
| 2026-05-05 13:29 | 30.91947 | 122.26884 | 21324 ft | 422 kts | 57° |
| 2026-05-05 13:30 | 30.93469 | 122.29812 | 21672 ft | 424 kts | 57° |
| 2026-05-05 13:30 | 30.94994 | 122.32755 | 21992 ft | 426 kts | 57° |
| 2026-05-05 13:30 | 30.96528 | 122.35718 | 22336 ft | 428 kts | 57° |
| 2026-05-05 13:30 | 30.98039 | 122.38713 | 22664 ft | 431 kts | 61° |
| 2026-05-05 13:31 | 30.99192 | 122.41949 | 22982 ft | 435 kts | 72° |
| 2026-05-05 13:31 | 30.99841 | 122.45352 | 23297 ft | 438 kts | 82° |
| 2026-05-05 13:31 | 30.99999 | 122.48902 | 23609 ft | 441 kts | 90° |
| 2026-05-05 13:31 | 30.99991 | 122.52484 | 23883 ft | 443 kts | 90° |
| 2026-05-05 13:32 | 30.99990 | 122.56085 | 24140 ft | 445 kts | 90° |
| 2026-05-05 13:32 | 30.99991 | 122.57456 | 24236 ft | 446 kts | 90° |
| 2026-05-05 13:32 | 30.99994 | 122.59814 | 24396 ft | 448 kts | 90° |
| 2026-05-05 13:32 | 30.99998 | 122.63457 | 24652 ft | 451 kts | 90° |
| 2026-05-05 13:33 | 31.00000 | 122.67122 | 24887 ft | 454 kts | 90° |
| 2026-05-05 13:33 | 31.00003 | 122.70807 | 25133 ft | 456 kts | 90° |
| 2026-05-05 13:33 | 31.00005 | 122.74462 | 25373 ft | 458 kts | 90° |
| 2026-05-05 13:33 | 31.00007 | 122.78182 | 25612 ft | 461 kts | 90° |
| 2026-05-05 13:34 | 31.00007 | 122.81929 | 25852 ft | 463 kts | 91° |
| 2026-05-05 13:34 | 31.00008 | 122.85689 | 26092 ft | 465 kts | 91° |
| 2026-05-05 13:34 | 31.00009 | 122.89470 | 26312 ft | 468 kts | 91° |
| 2026-05-05 13:34 | 31.00030 | 122.93271 | 26514 ft | 471 kts | 88° |
| 2026-05-05 13:35 | 31.00427 | 122.97071 | 26728 ft | 474 kts | 78° |
| 2026-05-05 13:35 | 31.01343 | 123.00774 | 26939 ft | 477 kts | 68° |
| 2026-05-05 13:35 | 31.02740 | 123.04230 | 27147 ft | 479 kts | 59° |
| 2026-05-05 13:35 | 31.04587 | 123.07458 | 27358 ft | 480 kts | 53° |
| 2026-05-05 13:36 | 31.06544 | 123.10628 | 27567 ft | 483 kts | 53° |
| 2026-05-05 13:36 | 31.08504 | 123.13821 | 27779 ft | 485 kts | 53° |
| 2026-05-05 13:36 | 31.10468 | 123.17031 | 28012 ft | 487 kts | 53° |
| 2026-05-05 13:36 | 31.12442 | 123.20265 | 28186 ft | 491 kts | 53° |
| 2026-05-05 13:37 | 31.14427 | 123.23517 | 28392 ft | 493 kts | 53° |
| 2026-05-05 13:37 | 31.16422 | 123.26783 | 28595 ft | 495 kts | 53° |
| 2026-05-05 13:37 | 31.18427 | 123.30065 | 28800 ft | 498 kts | 53° |
| 2026-05-05 13:37 | 31.20413 | 123.33317 | 28993 ft | 500 kts | 53° |
| 2026-05-05 13:38 | 31.22433 | 123.36629 | 29104 ft | 497 kts | 53° |
| 2026-05-05 13:38 | 31.24413 | 123.39877 | 29139 ft | 486 kts | 53° |
| 2026-05-05 13:38 | 31.28299 | 123.46271 | 29120 ft | 481 kts | 53° |
| 2026-05-05 13:39 | 31.32160 | 123.52643 | 29122 ft | 480 kts | 53° |
| 2026-05-05 13:39 | 31.36028 | 123.59002 | 29122 ft | 480 kts | 53° |
| 2026-05-05 13:40 | 31.39893 | 123.65298 | 29121 ft | 479 kts | 53° |
| 2026-05-05 13:40 | 31.43783 | 123.71634 | 29133 ft | 479 kts | 53° |
| 2026-05-05 13:41 | 31.47662 | 123.77987 | 29123 ft | 479 kts | 53° |
| 2026-05-05 13:41 | 31.51526 | 123.84361 | 29131 ft | 480 kts | 53° |
| 2026-05-05 13:42 | 31.55359 | 123.90700 | 29130 ft | 480 kts | 53° |
| 2026-05-05 13:42 | 31.59207 | 123.97092 | 29116 ft | 480 kts | 57° |
| 2026-05-05 13:43 | 31.61951 | 124.04206 | 29107 ft | 480 kts | 76° |
| 2026-05-05 13:43 | 31.63630 | 124.11794 | 29112 ft | 481 kts | 77° |
| 2026-05-05 13:44 | 31.65318 | 124.19348 | 29118 ft | 482 kts | 76° |
| 2026-05-05 13:44 | 31.67023 | 124.26972 | 29109 ft | 484 kts | 77° |
| 2026-05-05 13:45 | 31.68718 | 124.34619 | 29141 ft | 484 kts | 77° |
| 2026-05-05 13:45 | 31.70406 | 124.42275 | 29145 ft | 484 kts | 77° |
| 2026-05-05 13:46 | 31.72083 | 124.49878 | 29132 ft | 484 kts | 77° |
| 2026-05-05 13:46 | 31.73771 | 124.57541 | 29131 ft | 485 kts | 77° |
| 2026-05-05 13:47 | 31.75454 | 124.65223 | 29134 ft | 486 kts | 77° |
| 2026-05-05 13:47 | 31.77130 | 124.72917 | 29156 ft | 486 kts | 77° |
| 2026-05-05 13:48 | 31.78790 | 124.80562 | 29139 ft | 486 kts | 77° |
| 2026-05-05 13:48 | 31.80463 | 124.88273 | 29140 ft | 487 kts | 77° |
| 2026-05-05 13:49 | 31.82074 | 124.96006 | 29142 ft | 486 kts | 82° |
| 2026-05-05 13:49 | 31.82305 | 125.03864 | 29126 ft | 478 kts | 101° |
| 2026-05-05 13:50 | 31.81130 | 125.11471 | 29124 ft | 476 kts | 106° |
| 2026-05-05 13:50 | 31.79875 | 125.19131 | 29128 ft | 478 kts | 105° |
| 2026-05-05 13:51 | 31.78619 | 125.26801 | 29117 ft | 478 kts | 107° |
| 2026-05-05 13:51 | 31.77354 | 125.34496 | 29124 ft | 480 kts | 107° |
| 2026-05-05 13:52 | 31.76088 | 125.42157 | 29128 ft | 481 kts | 107° |
| 2026-05-05 13:52 | 31.74804 | 125.49881 | 29159 ft | 482 kts | 106° |
| 2026-05-05 13:53 | 31.73515 | 125.57613 | 29147 ft | 482 kts | 107° |
| 2026-05-05 13:53 | 31.72633 | 125.65455 | 29147 ft | 490 kts | 94° |
| 2026-05-05 13:54 | 31.73613 | 125.73374 | 29150 ft | 497 kts | 77° |
| 2026-05-05 13:54 | 31.75386 | 125.81237 | 29123 ft | 499 kts | 78° |
| 2026-05-05 13:55 | 31.77125 | 125.89155 | 29130 ft | 502 kts | 78° |
| 2026-05-05 13:55 | 31.78862 | 125.97114 | 29135 ft | 503 kts | 78° |
| 2026-05-05 13:56 | 31.80586 | 126.05037 | 29175 ft | 504 kts | 78° |
| 2026-05-05 13:56 | 31.82323 | 126.12996 | 29189 ft | 501 kts | 77° |
| 2026-05-05 13:57 | 31.84059 | 126.20921 | 29183 ft | 499 kts | 78° |
| 2026-05-05 13:57 | 31.85766 | 126.28830 | 29142 ft | 499 kts | 78° |
| 2026-05-05 13:58 | 31.87462 | 126.36713 | 29133 ft | 502 kts | 78° |
| 2026-05-05 13:58 | 31.89182 | 126.44680 | 29169 ft | 503 kts | 78° |
| 2026-05-05 13:59 | 31.91777 | 126.56637 | 29139 ft | 503 kts | 78° |
| 2026-05-05 14:00 | 31.94142 | 126.67275 | 29140 ft | 506 kts | 78° |
| 2026-05-05 14:00 | 31.96202 | 126.76601 | 29125 ft | 507 kts | 78° |
| 2026-05-05 14:01 | 31.97963 | 126.84663 | 29168 ft | 509 kts | 78° |
| 2026-05-05 14:01 | 31.99725 | 126.92734 | 29198 ft | 508 kts | 78° |
| 2026-05-05 14:02 | 32.01480 | 127.00789 | 29161 ft | 507 kts | 78° |
| 2026-05-05 14:02 | 32.03213 | 127.08792 | 29139 ft | 508 kts | 78° |
| 2026-05-05 14:03 | 32.05645 | 127.16641 | 29138 ft | 513 kts | 67° |
| 2026-05-05 14:03 | 32.08552 | 127.24328 | 29151 ft | 513 kts | 67° |
| 2026-05-05 14:04 | 32.11450 | 127.32032 | 29137 ft | 515 kts | 67° |
| 2026-05-05 14:04 | 32.14342 | 127.39716 | 29139 ft | 516 kts | 67° |
| 2026-05-05 14:05 | 32.17251 | 127.47473 | 29144 ft | 517 kts | 67° |
| 2026-05-05 14:05 | 32.20178 | 127.55296 | 29200 ft | 523 kts | 67° |
| 2026-05-05 14:06 | 32.23107 | 127.63151 | 29205 ft | 522 kts | 67° |
| 2026-05-05 14:06 | 32.26000 | 127.70930 | 29200 ft | 520 kts | 68° |
| 2026-05-05 14:07 | 32.28904 | 127.78757 | 29133 ft | 521 kts | 68° |
| 2026-05-05 14:07 | 32.31820 | 127.86623 | 29176 ft | 523 kts | 68° |
| 2026-05-05 14:08 | 32.34732 | 127.94494 | 29197 ft | 522 kts | 68° |
| 2026-05-05 14:08 | 32.37641 | 128.02376 | 29140 ft | 524 kts | 68° |
| 2026-05-05 14:09 | 32.40536 | 128.10245 | 29145 ft | 526 kts | 68° |
| 2026-05-05 14:09 | 32.43452 | 128.18196 | 29151 ft | 527 kts | 68° |
| 2026-05-05 14:10 | 32.46372 | 128.26164 | 29149 ft | 528 kts | 69° |
| 2026-05-05 14:10 | 32.49289 | 128.34147 | 29158 ft | 528 kts | 69° |
| 2026-05-05 14:11 | 32.52181 | 128.42077 | 29198 ft | 528 kts | 68° |
| 2026-05-05 14:11 | 32.55085 | 128.50071 | 29190 ft | 528 kts | 69° |
| 2026-05-05 14:12 | 32.57981 | 128.58068 | 29191 ft | 528 kts | 68° |
| 2026-05-05 14:12 | 32.60880 | 128.66060 | 29154 ft | 528 kts | 69° |
| 2026-05-05 14:13 | 32.63755 | 128.74022 | 29167 ft | 529 kts | 69° |
| 2026-05-05 14:13 | 32.66642 | 128.82051 | 29166 ft | 529 kts | 69° |
| 2026-05-05 14:14 | 32.69345 | 128.90173 | 29144 ft | 529 kts | 72° |
| 2026-05-05 14:14 | 32.71801 | 128.98394 | 29156 ft | 529 kts | 73° |
| 2026-05-05 14:15 | 32.74235 | 129.06637 | 29202 ft | 529 kts | 73° |
| 2026-05-05 14:15 | 32.76724 | 129.14788 | 29172 ft | 529 kts | 72° |
| 2026-05-05 14:16 | 32.79267 | 129.22990 | 29168 ft | 529 kts | 72° |
| 2026-05-05 14:16 | 32.81787 | 129.31203 | 29195 ft | 529 kts | 72° |
| 2026-05-05 14:17 | 32.84284 | 129.39429 | 29171 ft | 529 kts | 73° |
| 2026-05-05 14:17 | 32.86755 | 129.47605 | 29175 ft | 529 kts | 73° |
| 2026-05-05 14:18 | 32.89241 | 129.55837 | 29175 ft | 529 kts | 73° |
| 2026-05-05 14:18 | 32.91732 | 129.64077 | 29185 ft | 529 kts | 73° |
| 2026-05-05 14:19 | 32.94216 | 129.72322 | 29182 ft | 529 kts | 73° |
| 2026-05-05 14:19 | 32.96678 | 129.80519 | 29177 ft | 529 kts | 73° |
| 2026-05-05 14:20 | 32.99146 | 129.88778 | 29163 ft | 529 kts | 73° |
| 2026-05-05 14:20 | 33.01605 | 129.97044 | 29195 ft | 530 kts | 73° |
| 2026-05-05 14:21 | 33.04073 | 130.05319 | 29158 ft | 530 kts | 73° |
| 2026-05-05 14:21 | 33.06532 | 130.13599 | 29159 ft | 530 kts | 73° |
| 2026-05-05 14:22 | 33.08967 | 130.21823 | 29191 ft | 529 kts | 73° |
| 2026-05-05 14:22 | 33.11420 | 130.30109 | 29154 ft | 530 kts | 73° |
| 2026-05-05 14:23 | 33.13860 | 130.38405 | 29171 ft | 530 kts | 73° |
| 2026-05-05 14:23 | 33.16296 | 130.46711 | 29178 ft | 530 kts | 73° |
| 2026-05-05 14:24 | 33.18708 | 130.54963 | 29196 ft | 531 kts | 73° |
| 2026-05-05 14:24 | 33.21136 | 130.63296 | 29178 ft | 532 kts | 73° |
| 2026-05-05 14:25 | 33.23568 | 130.71643 | 29179 ft | 532 kts | 73° |
| 2026-05-05 14:25 | 33.25997 | 130.79998 | 29189 ft | 533 kts | 73° |
| 2026-05-05 14:26 | 33.28398 | 130.88305 | 29181 ft | 533 kts | 73° |
| 2026-05-05 14:26 | 33.30811 | 130.96680 | 29175 ft | 533 kts | 73° |
| 2026-05-05 14:27 | 33.33216 | 131.05067 | 29186 ft | 533 kts | 73° |
| 2026-05-05 14:27 | 33.35618 | 131.13453 | 29159 ft | 533 kts | 73° |
| 2026-05-05 14:28 | 33.38002 | 131.21775 | 29191 ft | 532 kts | 73° |
| 2026-05-05 14:28 | 33.40388 | 131.30146 | 29199 ft | 531 kts | 73° |
| 2026-05-05 14:29 | 33.42769 | 131.38515 | 29179 ft | 531 kts | 73° |
| 2026-05-05 14:29 | 33.45140 | 131.46878 | 29205 ft | 530 kts | 73° |
| 2026-05-05 14:30 | 33.47505 | 131.55246 | 29185 ft | 530 kts | 73° |
| 2026-05-05 14:30 | 33.49842 | 131.63551 | 29168 ft | 529 kts | 73° |
| 2026-05-05 14:31 | 33.52182 | 131.71906 | 29185 ft | 531 kts | 74° |
| 2026-05-05 14:31 | 33.54526 | 131.80292 | 29155 ft | 531 kts | 73° |
| 2026-05-05 14:32 | 33.56873 | 131.88671 | 29189 ft | 529 kts | 73° |
| 2026-05-05 14:32 | 33.59189 | 131.96976 | 29208 ft | 528 kts | 74° |
| 2026-05-05 14:33 | 33.61494 | 132.05340 | 29198 ft | 528 kts | 74° |
| 2026-05-05 14:33 | 33.63801 | 132.13686 | 29209 ft | 527 kts | 73° |
| 2026-05-05 14:34 | 33.66108 | 132.22026 | 29191 ft | 526 kts | 73° |
| 2026-05-05 14:34 | 33.68404 | 132.30358 | 29215 ft | 526 kts | 73° |
| 2026-05-05 14:35 | 33.70676 | 132.38639 | 29203 ft | 526 kts | 74° |
| 2026-05-05 14:35 | 33.72942 | 132.46982 | 29195 ft | 525 kts | 74° |
| 2026-05-05 14:36 | 33.75211 | 132.55311 | 29218 ft | 524 kts | 74° |
| 2026-05-05 14:36 | 33.77486 | 132.63648 | 29172 ft | 525 kts | 74° |
| 2026-05-05 14:37 | 33.79735 | 132.71926 | 29186 ft | 524 kts | 74° |
| 2026-05-05 14:37 | 33.81979 | 132.80257 | 29192 ft | 524 kts | 74° |
| 2026-05-05 14:38 | 33.84185 | 132.88456 | 28986 ft | 503 kts | 74° |
| 2026-05-05 14:38 | 33.85253 | 132.92428 | 28661 ft | 495 kts | 74° |
| 2026-05-05 14:38 | 33.86267 | 132.96356 | 28292 ft | 488 kts | 76° |
| 2026-05-05 14:39 | 33.87192 | 133.00202 | 27916 ft | 482 kts | 76° |
| 2026-05-05 14:39 | 33.88073 | 133.04066 | 27521 ft | 476 kts | 77° |
| 2026-05-05 14:39 | 33.88923 | 133.07886 | 27153 ft | 470 kts | 77° |
| 2026-05-05 14:39 | 33.89764 | 133.11663 | 26796 ft | 465 kts | 77° |
| 2026-05-05 14:40 | 33.90604 | 133.15390 | 26439 ft | 459 kts | 77° |
| 2026-05-05 14:40 | 33.91446 | 133.19073 | 26090 ft | 453 kts | 76° |
| 2026-05-05 14:40 | 33.92288 | 133.22703 | 25740 ft | 447 kts | 76° |
| 2026-05-05 14:40 | 33.93127 | 133.26289 | 25350 ft | 442 kts | 76° |
| 2026-05-05 14:41 | 33.93944 | 133.29787 | 25003 ft | 437 kts | 76° |
| 2026-05-05 14:41 | 33.94759 | 133.33293 | 24646 ft | 432 kts | 76° |
| 2026-05-05 14:41 | 33.95561 | 133.36760 | 24312 ft | 427 kts | 76° |
| 2026-05-05 14:41 | 33.96207 | 133.39569 | 24050 ft | 423 kts | 76° |
| 2026-05-05 14:42 | 33.96280 | 133.39887 | 24024 ft | 421 kts | 76° |
| 2026-05-05 14:42 | 33.97025 | 133.43263 | 23735 ft | 414 kts | 76° |
| 2026-05-05 14:42 | 33.97778 | 133.46588 | 23285 ft | 409 kts | 76° |
| 2026-05-05 14:42 | 33.98537 | 133.49871 | 22841 ft | 405 kts | 76° |
| 2026-05-05 14:43 | 33.99293 | 133.53119 | 22411 ft | 400 kts | 76° |
| 2026-05-05 14:43 | 34.00037 | 133.56331 | 21976 ft | 396 kts | 76° |
| 2026-05-05 14:43 | 34.00761 | 133.59468 | 21571 ft | 392 kts | 76° |
| 2026-05-05 14:43 | 34.01484 | 133.62614 | 21170 ft | 387 kts | 76° |
| 2026-05-05 14:44 | 34.02198 | 133.65734 | 20718 ft | 385 kts | 76° |
| 2026-05-05 14:44 | 34.02901 | 133.68829 | 20327 ft | 381 kts | 76° |
| 2026-05-05 14:44 | 34.03592 | 133.71889 | 19967 ft | 376 kts | 76° |
| 2026-05-05 14:44 | 34.04272 | 133.74913 | 19577 ft | 372 kts | 77° |
| 2026-05-05 14:45 | 34.04945 | 133.77903 | 19199 ft | 368 kts | 77° |
| 2026-05-05 14:45 | 34.05504 | 133.80886 | 18805 ft | 362 kts | 84° |
| 2026-05-05 14:45 | 34.05740 | 133.83843 | 18409 ft | 357 kts | 88° |
| 2026-05-05 14:45 | 34.05944 | 133.86817 | 17932 ft | 355 kts | 88° |
| 2026-05-05 14:46 | 34.06150 | 133.89767 | 17494 ft | 351 kts | 88° |
| 2026-05-05 14:46 | 34.06352 | 133.92691 | 17067 ft | 348 kts | 88° |
| 2026-05-05 14:46 | 34.06548 | 133.95588 | 16619 ft | 345 kts | 88° |
| 2026-05-05 14:46 | 34.06743 | 133.98453 | 16262 ft | 340 kts | 88° |
| 2026-05-05 14:47 | 34.06934 | 134.01248 | 16130 ft | 328 kts | 88° |
| 2026-05-05 14:47 | 34.07120 | 134.03950 | 15935 ft | 319 kts | 88° |
| 2026-05-05 14:47 | 34.07298 | 134.06559 | 15661 ft | 315 kts | 88° |
| 2026-05-05 14:47 | 34.07475 | 134.09179 | 15320 ft | 312 kts | 88° |
| 2026-05-05 14:48 | 34.07648 | 134.11776 | 14972 ft | 310 kts | 88° |
| 2026-05-05 14:48 | 34.07819 | 134.14355 | 14633 ft | 307 kts | 89° |
| 2026-05-05 14:48 | 34.07987 | 134.16913 | 14298 ft | 305 kts | 88° |
| 2026-05-05 14:48 | 34.08156 | 134.19452 | 13941 ft | 303 kts | 89° |
| 2026-05-05 14:49 | 34.08327 | 134.21974 | 13550 ft | 301 kts | 87° |
| 2026-05-05 14:49 | 34.08585 | 134.24476 | 13154 ft | 300 kts | 84° |
| 2026-05-05 14:49 | 34.08915 | 134.26954 | 12762 ft | 299 kts | 83° |
| 2026-05-05 14:49 | 34.09272 | 134.29418 | 12367 ft | 298 kts | 83° |
| 2026-05-05 14:50 | 34.09626 | 134.31839 | 12018 ft | 296 kts | 84° |
| 2026-05-05 14:50 | 34.09977 | 134.34275 | 11672 ft | 293 kts | 83° |
| 2026-05-05 14:50 | 34.10315 | 134.36689 | 11327 ft | 291 kts | 83° |
| 2026-05-05 14:50 | 34.10645 | 134.39088 | 10976 ft | 289 kts | 83° |
| 2026-05-05 14:51 | 34.10968 | 134.41471 | 10637 ft | 287 kts | 84° |
| 2026-05-05 14:51 | 34.11284 | 134.43842 | 10293 ft | 285 kts | 84° |
| 2026-05-05 14:51 | 34.11597 | 134.46200 | 9937 ft | 284 kts | 84° |
| 2026-05-05 14:51 | 34.11910 | 134.48542 | 9568 ft | 282 kts | 84° |
| 2026-05-05 14:52 | 34.12222 | 134.50867 | 9211 ft | 280 kts | 84° |
| 2026-05-05 14:52 | 34.12526 | 134.53142 | 8871 ft | 277 kts | 84° |
| 2026-05-05 14:52 | 34.12830 | 134.55433 | 8528 ft | 275 kts | 84° |
| 2026-05-05 14:52 | 34.13130 | 134.57705 | 8185 ft | 273 kts | 84° |
| 2026-05-05 14:53 | 34.13429 | 134.59963 | 7852 ft | 271 kts | 84° |
| 2026-05-05 14:53 | 34.13727 | 134.62202 | 7513 ft | 269 kts | 84° |
| 2026-05-05 14:53 | 34.14022 | 134.64419 | 7211 ft | 266 kts | 85° |
| 2026-05-05 14:53 | 34.14314 | 134.66618 | 6900 ft | 264 kts | 84° |
| 2026-05-05 14:54 | 34.14601 | 134.68800 | 6574 ft | 262 kts | 84° |
| 2026-05-05 14:54 | 34.14899 | 134.70964 | 6220 ft | 262 kts | 81° |
| 2026-05-05 14:54 | 34.15477 | 134.73021 | 5871 ft | 264 kts | 68° |
| 2026-05-05 14:54 | 34.16351 | 134.74976 | 5502 ft | 265 kts | 64° |
| 2026-05-05 14:55 | 34.17240 | 134.76923 | 5159 ft | 264 kts | 65° |
| 2026-05-05 14:55 | 34.18124 | 134.78864 | 4790 ft | 264 kts | 65° |
| 2026-05-05 14:55 | 34.19004 | 134.80807 | 4393 ft | 264 kts | 65° |
| 2026-05-05 14:55 | 34.19884 | 134.82748 | 4016 ft | 263 kts | 65° |
| 2026-05-05 14:56 | 34.20761 | 134.84686 | 3651 ft | 263 kts | 64° |
| 2026-05-05 14:56 | 34.21636 | 134.86625 | 3259 ft | 263 kts | 64° |
| 2026-05-05 14:56 | 34.22496 | 134.88531 | 2910 ft | 261 kts | 66° |
| 2026-05-05 14:56 | 34.23365 | 134.90454 | 2533 ft | 260 kts | 65° |
| 2026-05-05 14:57 | 34.24229 | 134.92368 | 2084 ft | 262 kts | 65° |
| 2026-05-05 14:57 | 34.25133 | 134.94277 | 1881 ft | 264 kts | 59° |
| 2026-05-05 14:57 | 34.26280 | 134.96020 | 1752 ft | 262 kts | 53° |
| 2026-05-05 14:57 | 34.27383 | 134.97629 | 2094 ft | 240 kts | 54° |
| 2026-05-05 14:58 | 34.28405 | 134.99128 | 2461 ft | 227 kts | 55° |
| 2026-05-05 14:58 | 34.29396 | 135.00597 | 2829 ft | 224 kts | 53° |
| 2026-05-05 14:58 | 34.30370 | 135.02045 | 3200 ft | 221 kts | 53° |
| 2026-05-05 14:58 | 34.31339 | 135.03488 | 3488 ft | 222 kts | 53° |
| 2026-05-05 14:59 | 34.32300 | 135.04922 | 3372 ft | 221 kts | 53° |
| 2026-05-05 14:59 | 34.33115 | 135.06480 | 3129 ft | 218 kts | 68° |
| 2026-05-05 14:59 | 34.33581 | 135.08197 | 2863 ft | 214 kts | 78° |
| 2026-05-05 14:59 | 34.33958 | 135.09940 | 2585 ft | 214 kts | 78° |
| 2026-05-05 15:00 | 34.34371 | 135.11660 | 2319 ft | 213 kts | 69° |
| 2026-05-05 15:00 | 34.34845 | 135.12675 | 2146 ft | 206 kts | 55° |
| 2026-05-05 15:00 | 34.35990 | 135.14375 | 1811 ft | 182 kts | 53° |
| 2026-05-05 15:00 | 34.36750 | 135.15504 | 1563 ft | 165 kts | 53° |
| 2026-05-05 15:01 | 34.37220 | 135.16203 | 1419 ft | 159 kts | 53° |
| 2026-05-05 15:01 | 34.38129 | 135.17556 | 1154 ft | 155 kts | 53° |
| 2026-05-05 15:01 | 34.38803 | 135.18559 | 950 ft | 153 kts | 53° |
| 2026-05-05 15:01 | 34.39465 | 135.19552 | 758 ft | 150 kts | 53° |
| 2026-05-05 15:02 | 34.40132 | 135.20538 | 594 ft | 151 kts | 52° |
| 2026-05-05 15:02 | 34.40791 | 135.21512 | 354 ft | 149 kts | 54° |
| 2026-05-05 15:02 | 34.41440 | 135.22474 | 151 ft | 148 kts | 53° |
| 2026-05-05 15:02 | 34.41867 | 135.23113 | 32 ft | 146 kts | 54° |
| 2026-05-05 15:03 | 34.42403 | 135.23932 | 14 ft | 86 kts | 50° |
| 2026-05-05 15:03 | 34.42644 | 135.24274 | 15 ft | 22 kts | 49° |
| 2026-05-05 15:03 | 34.42763 | 135.24385 | 16 ft | 22 kts | 27° |
| 2026-05-05 15:03 | 34.42872 | 135.24447 | 14 ft | 12 kts | 19° |
| 2026-05-05 15:04 | 34.42953 | 135.24483 | 16 ft | 13 kts | 21° |
| 2026-05-05 15:04 | 34.43010 | 135.24510 | 20 ft | 13 kts | 21° |
| 2026-05-05 15:04 | 34.43087 | 135.24485 | 19 ft | 13 kts | 321° |
| 2026-05-05 15:04 | 34.43141 | 135.24431 | 21 ft | 7 kts | 332° |
| 2026-05-05 15:05 | 34.43232 | 135.24489 | 19 ft | 10 kts | 51° |
| 2026-05-05 15:05 | 34.43294 | 135.24582 | 19 ft | 12 kts | 51° |
| 2026-05-05 15:05 | 34.43347 | 135.24661 | 20 ft | 13 kts | 49° |
| 2026-05-05 15:06 | 34.43405 | 135.24748 | 19 ft | 14 kts | 51° |
| 2026-05-05 15:06 | 34.43447 | 135.24809 | 19 ft | 15 kts | 51° |
| 2026-05-05 15:06 | 34.43537 | 135.24944 | 19 ft | 16 kts | 51° |
| 2026-05-05 15:06 | 34.43602 | 135.25035 | 20 ft | 10 kts | 27° |
| 2026-05-05 15:07 | 34.43630 | 135.25025 | 19 ft | 5 kts | 330° |
| 2026-05-05 15:07 | 34.43666 | 135.24991 | 19 ft | 3 kts | 320° |
| 2026-05-05 15:07 | 34.43669 | 135.24987 | 19 ft | 1 kts | 320° |
| 2026-05-05 15:07 | 34.43677 | 135.24979 | 20 ft | 1 kts | 321° |
| 2026-05-05 15:08 | 34.43680 | 135.24977 | 19 ft | 1 kts | 321° |